Terminal Aerodrome Forecast
Issued by NWS

Home | Current Version | Previous Version | Graphics & Text | Print | Product List | Glossary On
Versions: 1 2 3 4 5 6 7 8 9 10 11 12 13 14 15 16
700
FTUS42 KMHX 141739
TAFOAJ
TAF
KOAJ 141739Z 1418/1518 34005KT P6SM BKN015
     FM142100 VRB03KT P6SM SCT020 BKN025
     FM150600 00000KT 3SM BR SCT005 SCT035
     FM151000 00000KT 1SM BR BKN005
     FM151400 21005KT P6SM SCT025
      AMD LTD TO CLD VIS AND WIND=

USA.gov is the U.S. government's official web portal to all federal, state and local government web resources and services.